Nearby METAR Reports

 

KLXT - Lees Summit Muni, Missouri, USA
Distance from station: E 5mi, 9km
Updated: Sat, 23-May-2015 2:53am CDT
Overcast
Overcast
 Wind from SSE
Wind: SSE 5 mph , 7 km/h
Temperature: 61°F , 16°C
Dew Point: 48°F , 9°C
Humidity: 63%
Barometer: 30.21 inHg , 1023 hPa
Clouds: Overcast
Visibility: 10 miles , 16 km
Cloud details: Overcast 5000 ft
2015/05/23 07:53 KLXT 230753Z AUTO 15004KT 10SM OVC050 16/09 A3021 RMK AO2 SLP227 T01610094
KMKC - Kansas City/Dntn, Missouri, USA
Distance from station: NW 12mi, 19km
Updated: Sat, 23-May-2015 2:54am CDT
Overcast
Overcast
 Wind from SSE
Wind: SSE 5 mph , 7 km/h
Temperature: 63°F , 17°C
Dew Point: 48°F , 9°C
Humidity: 59%
Barometer: 30.19 inHg , 1022.4 hPa
Clouds: Overcast
Visibility: 10 miles , 16 km
Cloud details: Overcast 5000 ft
2015/05/23 07:54 KMKC 230754Z 15004KT 10SM OVC050 17/09 A3019 RMK AO2 SLP220 T01720094
 
KIXD - Olathe/Industria, Kansas, USA
Distance from station: WSW 25mi, 41km
Updated: Sat, 23-May-2015 2:53am CDT
Overcast
Overcast
 Wind from SSE
Wind: SSE 14 mph , 22 km/h
Temperature: 61°F , 16°C
Dew Point: 52°F , 11°C
Humidity: 72%
Barometer: 30.20 inHg , 1022.7 hPa
Clouds: Overcast
Visibility: 10 miles , 16 km
Cloud details: Overcast 4100 ft
2015/05/23 07:53 KIXD 230753Z AUTO 15012KT 10SM OVC041 16/11 A3020 RMK AO2 SLP222 T01560106
KMCI - Kansas City/Intl, Missouri, USA
Distance from station: NW 26mi, 42km
Updated: Sat, 23-May-2015 2:53am CDT
Overcast
Overcast
 Wind from SSE
Wind: SSE 8 mph , 13 km/h
Temperature: 61°F , 16°C
Dew Point: 52°F , 11°C
Humidity: 72%
Barometer: 30.20 inHg , 1022.7 hPa
Clouds: Overcast
Visibility: 10 miles , 16 km
Cloud details: Overcast 5000 ft
2015/05/23 07:53 KMCI 230753Z 15007KT 10SM OVC050 16/11 A3020 RMK AO2 SLP222 T01610106
 
KRCM - Warrensburg Skyh, Missouri, USA
Distance from station: ESE 38mi, 62km
Updated: Sat, 23-May-2015 3:35am CDT
Overcast
Overcast
 Wind from SE
Wind: SE 6 mph , 9 km/h
Temperature: 59°F , 15°C
Dew Point: 50°F , 10°C
Humidity: 72%
Barometer: 30.22 inHg , 1023.4 hPa
Clouds: Overcast
Visibility: 10 miles , 16 km
Cloud details: Mostly cloudy 6000 ft
Overcast 7000 ft
2015/05/23 08:35 KRCM 230835Z AUTO 14005KT 10SM BKN060 OVC070 15/10 A3022 RMK AO2
KLWC - Lawrence, Kansas, USA
Distance from station: W 40mi, 65km
Updated: Sat, 23-May-2015 2:52am CDT
Overcast
Overcast
 Wind from SE
Wind: SE 6 mph , 9 km/h
Temperature: 61°F , 16°C
Dew Point: 52°F , 11°C
Humidity: 72%
Barometer: 30.19 inHg , 1022.4 hPa
Clouds: Overcast
Visibility: 10 miles , 16 km
Cloud details: Mostly cloudy 4200 ft
Mostly cloudy 5000 ft
Overcast 6000 ft
2015/05/23 07:52 KLWC 230752Z AUTO 13005KT 10SM BKN042 BKN050 OVC060 16/11 A3019 RMK AO2 SLP221 T01560111
 
KSZL - Whiteman Afb, Missouri, USA
Distance from station: ESE 53mi, 86km
Updated: Sat, 23-May-2015 2:58am CDT
Overcast
Overcast
 Wind from SSE
Wind: SSE 8 mph , 13 km/h
Temperature: 61°F , 16°C
Dew Point: 50°F , 10°C
Humidity: 68%
Barometer: 30.21 inHg , 1023 hPa
Clouds: Overcast
Visibility: 10 miles , 16 km
Cloud details: Overcast 6500 ft
2015/05/23 07:58 KSZL 230758Z AUTO 15007KT 10SM OVC065 16/10 A3021 RMK AO2 SLP230 T01630103 $
KSTJ - St. Joseph, Missouri, USA
Distance from station: NNW 59mi, 95km
Updated: Sat, 23-May-2015 2:53am CDT
Overcast
Overcast
 Wind from SE
Wind: SE 8 mph , 13 km/h
Temperature: 59°F , 15°C
Dew Point: 52°F , 11°C
Humidity: 77%
Barometer: 30.20 inHg , 1022.7 hPa
Clouds: Overcast
Visibility: 10 miles , 16 km
Cloud details: Mostly cloudy 6000 ft
Mostly cloudy 8500 ft
Overcast 11000 ft
2015/05/23 07:53 KSTJ 230753Z AUTO 13007KT 10SM BKN060 BKN085 OVC110 15/11 A3020 RMK AO2 SLP222 T01500111
 
KGLY - Clinton, Missouri, USA
Distance from station: SE 61mi, 98km
Updated: Sat, 23-May-2015 3:35am CDT
Overcast
Overcast
 Wind from SE
Wind: SE 5 mph , 7 km/h
Temperature: 61°F , 16°C
Dew Point: 52°F , 11°C
Humidity: 72%
Barometer: 30.23 inHg , 1023.7 hPa
Clouds: Overcast
Visibility: 10 miles , 16 km
Cloud details: Overcast 4600 ft
2015/05/23 08:35 KGLY 230835Z AUTO 14004KT 10SM OVC046 16/11 A3023 RMK AO2
KFOE - Topeka/Forbes, Kansas, USA
Distance from station: W 64mi, 103km
Updated: Sat, 23-May-2015 2:53am CDT
Overcast
Overcast
 Wind from SE
Wind: SE 8 mph , 13 km/h
Temperature: 61°F , 16°C
Dew Point: 52°F , 11°C
Humidity: 72%
Barometer: 30.18 inHg , 1022 hPa
Clouds: Overcast
Visibility: 10 miles , 16 km
Cloud details: Overcast 3400 ft
2015/05/23 07:53 KFOE 230753Z 14007KT 10SM OVC034 16/11 A3018 RMK AO2 SLP216 T01560111
 
KDMO - Sedalia, Missouri, USA
Distance from station: ESE 72mi, 116km
Updated: Sat, 23-May-2015 2:53am CDT
Overcast
Overcast
 Wind from SSE
Wind: SSE 7 mph , 11 km/h
Temperature: 61°F , 16°C
Dew Point: 54°F , 12°C
Humidity: 77%
Barometer: 30.24 inHg , 1024 hPa
Clouds: Overcast
Visibility: 10 miles , 16 km
Cloud details: Overcast 7500 ft
2015/05/23 07:53 KDMO 230753Z AUTO 16006KT 10SM OVC075 16/12 A3024 RMK AO2 SLP238 T01610122 TSNO
KCDJ - Chillicothe, Missouri, USA
Distance from station: NE 74mi, 120km
Updated: Sat, 23-May-2015 2:52am CDT

 Wind from calm
Wind: Calm
Temperature: 61°F , 16°C
Dew Point: 54°F , 12°C
Humidity: 77%
Barometer: 30.23 inHg , 1023.7 hPa
2015/05/23 07:52 KCDJ 230752Z AUTO 00000KT 16/12 A3023 RMK AO1 SLP232 T01560122
 
KFNB - Falls City/Brenn, Nebraska, USA
Distance from station: NW 96mi, 154km
Updated: Sat, 23-May-2015 2:53am CDT
Overcast
Overcast
 Wind from ESE
Wind: ESE 3 mph , 6 km/h
Temperature: 55°F , 13°C
Dew Point: 52°F , 11°C
Humidity: 88%
Barometer: 30.19 inHg , 1022.4 hPa
Clouds: Overcast
Visibility: 10 miles , 16 km
Cloud details: Mostly cloudy 5500 ft
Mostly cloudy 7000 ft
Overcast 8500 ft
2015/05/23 07:53 KFNB 230753Z AUTO 12003KT 10SM BKN055 BKN070 OVC085 13/11 A3019 RMK AO2 SLP219 T01330106
KVER - Boonville, Missouri, USA
Distance from station: E 96mi, 154km
Updated: Sat, 23-May-2015 3:35am CDT
Overcast
Overcast
 Wind from SE
Wind: SE 5 mph , 7 km/h
Temperature: 61°F , 16°C
Dew Point: 54°F , 12°C
Humidity: 77%
Barometer: 30.25 inHg , 1024.4 hPa
Clouds: Overcast
Visibility: 10 miles , 16 km
Cloud details: Partly cloudy 8000 ft
Overcast 9000 ft
2015/05/23 08:35 KVER 230835Z AUTO 14004KT 10SM SCT080 OVC090 16/12 A3025 RMK AO2 T01550120